createdAt,value
2022-08-18T00:01:11.647Z,19.30
2022-08-18T00:03:56.734Z,19.40
2022-08-18T00:06:32.419Z,19.30
2022-08-18T00:09:02.674Z,19.40
2022-08-18T00:11:41.197Z,19.30
2022-08-18T00:14:19.347Z,19.40
2022-08-18T00:16:51.568Z,19.40
2022-08-18T00:19:19.537Z,19.40
2022-08-18T00:21:48.780Z,19.40
2022-08-18T00:24:16.754Z,19.40
2022-08-18T00:26:44.726Z,19.40
2022-08-18T00:29:16.637Z,19.40
2022-08-18T00:31:44.600Z,19.40
2022-08-18T00:34:12.779Z,19.30
2022-08-18T00:36:41.124Z,19.30
2022-08-18T00:39:10.580Z,19.30
2022-08-18T00:41:38.538Z,19.20
2022-08-18T00:44:06.390Z,19.20
2022-08-18T00:46:37.718Z,19.20
2022-08-18T00:49:06.079Z,19.30
2022-08-18T00:51:40.756Z,19.20
2022-08-18T00:54:14.647Z,19.20
2022-08-18T00:56:46.189Z,19.20
2022-08-18T00:59:20.610Z,19.20
2022-08-18T01:01:51.323Z,19.20
2022-08-18T01:04:23.832Z,19.20
2022-08-18T01:06:54.964Z,19.10
2022-08-18T01:09:24.546Z,19.00
2022-08-18T01:11:52.494Z,19.00
2022-08-18T01:14:21.211Z,19.00
2022-08-18T01:17:07.613Z,19.00
2022-08-18T01:19:54.053Z,19.10
2022-08-18T01:22:28.476Z,19.00
2022-08-18T01:25:18.037Z,19.00
2022-08-18T01:27:46.114Z,19.00
2022-08-18T01:30:18.277Z,18.90
2022-08-18T01:32:46.850Z,18.90
2022-08-18T01:35:18.150Z,18.90
2022-08-18T01:37:46.140Z,18.80
2022-08-18T01:41:17.270Z,18.80
2022-08-18T01:43:06.185Z,18.80
2022-08-18T01:45:34.575Z,18.70
2022-08-18T01:48:04.879Z,18.70
2022-08-18T01:50:34.218Z,18.60
2022-08-18T01:53:04.387Z,18.60
2022-08-18T01:55:34.194Z,18.60
2022-08-18T01:58:02.427Z,18.50
2022-08-18T02:00:32.258Z,18.50
2022-08-18T02:03:02.771Z,18.50
2022-08-18T02:05:37.332Z,18.40
2022-08-18T02:08:06.561Z,18.40
2022-08-18T02:10:36.217Z,18.40
2022-08-18T02:13:04.848Z,18.40
2022-08-18T02:15:33.519Z,18.30
2022-08-18T02:18:01.472Z,18.30
2022-08-18T02:20:29.348Z,18.30
2022-08-18T02:22:58.660Z,18.30
2022-08-18T02:25:26.626Z,18.30
2022-08-18T02:27:55.884Z,18.20
2022-08-18T02:30:23.890Z,18.30
2022-08-18T02:32:51.825Z,18.30
2022-08-18T02:35:19.942Z,18.20
2022-08-18T02:37:48.221Z,18.20
2022-08-18T02:40:19.020Z,18.20
2022-08-18T02:42:48.038Z,18.10
2022-08-18T02:45:17.559Z,18.00
2022-08-18T02:47:45.920Z,18.10
2022-08-18T02:50:16.572Z,18.00
2022-08-18T02:52:44.510Z,18.00
2022-08-18T02:55:12.856Z,18.00
2022-08-18T02:57:43.654Z,18.00
2022-08-18T03:00:15.301Z,17.90
2022-08-18T03:02:48.686Z,17.90
2022-08-18T03:05:16.894Z,17.80
2022-08-18T03:07:45.401Z,17.80
2022-08-18T03:10:33.528Z,17.70
2022-08-18T03:13:02.173Z,17.70
2022-08-18T03:15:30.063Z,17.70
2022-08-18T03:17:59.579Z,17.70
2022-08-18T03:20:30.917Z,17.70
2022-08-18T03:23:09.514Z,17.70
2022-08-18T03:25:38.349Z,17.70
2022-08-18T03:28:07.009Z,17.70
2022-08-18T03:30:35.180Z,17.70
2022-08-18T03:33:04.733Z,17.60
2022-08-18T03:35:34.190Z,17.60
2022-08-18T03:38:02.500Z,17.60
2022-08-18T03:40:30.387Z,17.50
2022-08-18T03:42:58.326Z,17.50
2022-08-18T03:45:31.918Z,17.50
2022-08-18T03:48:00.697Z,17.50
2022-08-18T03:50:32.241Z,17.50
2022-08-18T03:53:00.395Z,17.50
2022-08-18T03:55:29.567Z,17.40
2022-08-18T03:58:02.844Z,17.40
2022-08-18T04:00:33.395Z,17.40
2022-08-18T04:03:04.022Z,17.40
2022-08-18T04:05:35.178Z,17.40
2022-08-18T04:08:04.901Z,17.40
2022-08-18T04:10:32.768Z,17.30
2022-08-18T04:13:00.945Z,17.30
2022-08-18T04:15:28.933Z,17.30
2022-08-18T04:18:03.844Z,17.20
2022-08-18T04:20:33.689Z,17.10
2022-08-18T04:23:01.987Z,17.10
2022-08-18T04:25:32.921Z,17.20
2022-08-18T04:28:03.605Z,17.30
2022-08-18T04:30:32.261Z,17.30
2022-08-18T04:33:02.405Z,17.30
2022-08-18T04:35:33.621Z,17.30
2022-08-18T04:38:01.697Z,17.40
2022-08-18T04:40:30.057Z,17.40
2022-08-18T04:42:58.144Z,17.50
2022-08-18T04:45:26.175Z,17.60
2022-08-18T04:47:54.201Z,17.70
2022-08-18T04:50:24.454Z,17.80
2022-08-18T04:53:16.944Z,17.90
2022-08-18T04:55:49.312Z,18.00
2022-08-18T04:58:18.769Z,18.20
2022-08-18T05:00:47.174Z,18.50
2022-08-18T05:03:15.597Z,18.90
2022-08-18T05:05:43.608Z,19.50
2022-08-18T05:08:12.887Z,20.00
2022-08-18T05:10:41.425Z,20.60
2022-08-18T05:13:09.779Z,20.80
2022-08-18T05:15:59.335Z,21.10
2022-08-18T05:18:26.639Z,21.70
2022-08-18T05:20:56.676Z,21.90
2022-08-18T05:23:26.614Z,21.60
2022-08-18T05:25:58.850Z,21.50
2022-08-18T05:28:27.133Z,22.00
2022-08-18T05:30:55.180Z,22.40
2022-08-18T05:33:28.279Z,23.10
2022-08-18T05:36:04.435Z,23.70
2022-08-18T05:38:42.514Z,24.20
2022-08-18T05:41:15.209Z,25.00
2022-08-18T05:43:52.061Z,25.80
2022-08-18T05:46:22.087Z,26.00
2022-08-18T05:48:50.963Z,26.10
2022-08-18T05:51:24.302Z,26.50
2022-08-18T05:54:11.346Z,26.10
2022-08-18T05:56:50.237Z,25.70
2022-08-18T05:59:23.544Z,25.20
2022-08-18T06:01:57.475Z,24.80
2022-08-18T06:04:34.503Z,24.00
2022-08-18T06:07:06.473Z,23.30
2022-08-18T06:09:42.617Z,23.70
2022-08-18T06:12:19.150Z,23.70
2022-08-18T06:14:47.198Z,23.90
2022-08-18T06:17:30.245Z,23.90
2022-08-18T06:20:09.170Z,23.90
2022-08-18T06:22:52.094Z,23.50
2022-08-18T06:25:34.180Z,23.40
2022-08-18T06:28:07.285Z,22.90
2022-08-18T06:30:51.154Z,22.70
2022-08-18T06:33:43.335Z,22.80
2022-08-18T06:36:21.501Z,22.80
2022-08-18T06:38:57.057Z,22.30
2022-08-18T06:41:43.492Z,22.40
2022-08-18T06:44:20.781Z,22.40
2022-08-18T06:46:53.662Z,22.60
2022-08-18T06:49:31.947Z,22.70
2022-08-18T06:52:00.233Z,22.70
2022-08-18T06:54:30.560Z,22.70
2022-08-18T06:57:00.403Z,22.70
2022-08-18T06:59:32.342Z,22.50
2022-08-18T07:02:03.903Z,22.70
2022-08-18T07:04:40.237Z,22.90
2022-08-18T07:07:17.355Z,23.00
2022-08-18T07:09:45.744Z,23.40
2022-08-18T07:12:23.117Z,23.90
2022-08-18T07:14:53.566Z,24.20
2022-08-18T07:17:42.738Z,24.50
2022-08-18T07:20:20.978Z,24.50
2022-08-18T07:22:57.365Z,24.40
2022-08-18T07:25:31.949Z,24.30
2022-08-18T07:28:02.701Z,24.50
2022-08-18T07:30:34.457Z,24.70
2022-08-18T07:33:12.597Z,24.70
2022-08-18T07:35:45.570Z,25.50
2022-08-18T07:38:41.333Z,27.20
2022-08-18T07:41:15.519Z,29.10
2022-08-18T07:43:58.178Z,29.30
2022-08-18T07:46:32.751Z,30.80
2022-08-18T07:49:04.701Z,30.70
2022-08-18T07:51:45.773Z,31.30
2022-08-18T07:54:47.800Z,31.50
2022-08-18T07:57:20.492Z,31.10
2022-08-18T07:59:58.670Z,31.30
2022-08-18T08:02:41.388Z,31.50
2022-08-18T08:05:18.537Z,33.50
2022-08-18T08:07:50.933Z,33.30
2022-08-18T08:10:37.422Z,32.40
2022-08-18T08:13:37.068Z,31.60
2022-08-18T08:16:20.095Z,32.00
2022-08-18T08:18:58.284Z,34.00
2022-08-18T08:21:33.265Z,35.80
2022-08-18T08:24:14.092Z,36.30
2022-08-18T08:26:55.161Z,35.30
2022-08-18T08:29:38.492Z,35.10
2022-08-18T08:32:13.481Z,34.30
2022-08-18T08:34:46.305Z,33.20
2022-08-18T08:37:17.650Z,33.50
2022-08-18T08:39:50.605Z,33.20
2022-08-18T08:42:32.072Z,31.70
2022-08-18T08:45:04.678Z,32.60
2022-08-18T08:47:43.673Z,32.80
2022-08-18T08:50:16.776Z,32.20
2022-08-18T08:52:51.386Z,32.40
2022-08-18T08:55:25.569Z,33.50
2022-08-18T08:58:02.007Z,35.10
2022-08-18T09:00:31.063Z,37.50
2022-08-18T09:03:13.424Z,37.80
2022-08-18T09:05:54.777Z,37.30
2022-08-18T09:08:43.833Z,38.00
2022-08-18T09:11:27.734Z,38.20
2022-08-18T09:14:14.969Z,37.80
2022-08-18T09:16:53.251Z,36.90
2022-08-18T09:19:46.107Z,37.40
2022-08-18T09:22:29.766Z,38.10
2022-08-18T09:24:58.764Z,39.80
2022-08-18T09:28:07.320Z,40.40
2022-08-18T09:30:45.144Z,40.70
2022-08-18T09:33:22.913Z,41.60
2022-08-18T09:36:25.701Z,39.80
2022-08-18T09:39:18.588Z,40.30
2022-08-18T09:41:52.661Z,39.80
2022-08-18T09:44:39.538Z,41.20
2022-08-18T09:47:11.183Z,41.30
2022-08-18T09:53:02.271Z,41.10
2022-08-18T09:58:53.853Z,39.90
2022-08-18T10:01:41.298Z,40.40
2022-08-18T10:04:29.108Z,40.60
2022-08-18T10:07:20.785Z,41.40
2022-08-18T10:10:00.817Z,40.80
2022-08-18T10:12:49.144Z,40.80
2022-08-18T10:15:36.665Z,40.30
2022-08-18T10:18:31.608Z,39.60
2022-08-18T10:21:10.558Z,39.80
2022-08-18T10:24:02.903Z,39.60
2022-08-18T10:27:13.563Z,39.20
2022-08-18T10:29:59.562Z,39.40
2022-08-18T10:32:52.264Z,40.90
2022-08-18T10:35:58.398Z,41.30
2022-08-18T10:38:53.445Z,41.20
2022-08-18T10:41:26.406Z,41.10
2022-08-18T10:44:20.830Z,39.50
2022-08-18T10:46:51.463Z,39.70
2022-08-18T10:49:26.024Z,40.00
2022-08-18T10:52:10.745Z,40.20
2022-08-18T10:54:59.158Z,39.60
2022-08-18T10:57:35.428Z,39.90
2022-08-18T11:00:11.659Z,41.60
2022-08-18T11:03:39.988Z,42.70
2022-08-18T11:06:03.633Z,42.70
2022-08-18T11:08:44.648Z,42.10
2022-08-18T11:11:34.242Z,42.20
2022-08-18T11:14:12.379Z,39.90
2022-08-18T11:16:50.575Z,37.30
2022-08-18T11:19:25.767Z,36.50
2022-08-18T11:21:54.507Z,36.00
2022-08-18T11:24:25.621Z,34.80
2022-08-18T11:26:56.009Z,34.40
2022-08-18T11:29:28.723Z,35.40
2022-08-18T11:32:03.988Z,36.30
2022-08-18T11:34:38.072Z,36.40
2022-08-18T11:37:20.864Z,36.50
2022-08-18T11:39:51.057Z,37.10
2022-08-18T11:42:21.703Z,37.40
2022-08-18T11:44:55.959Z,36.20
2022-08-18T11:47:27.769Z,36.50
2022-08-18T11:50:04.411Z,36.00
2022-08-18T11:55:29.021Z,35.70
2022-08-18T11:58:00.308Z,35.10
2022-08-18T12:00:53.586Z,33.80
2022-08-18T12:03:30.040Z,32.50
2022-08-18T12:06:00.679Z,31.60
2022-08-18T12:11:28.811Z,30.90
2022-08-18T12:14:32.310Z,30.80
2022-08-18T12:16:55.775Z,30.60
2022-08-18T12:19:30.670Z,31.40
2022-08-18T12:22:01.905Z,31.00
2022-08-18T12:24:36.789Z,30.80
2022-08-18T12:29:58.275Z,31.70
2022-08-18T12:32:46.474Z,30.50
2022-08-18T12:35:21.721Z,30.20
2022-08-18T12:40:39.938Z,30.50
2022-08-18T12:43:08.034Z,30.40
2022-08-18T12:45:37.986Z,30.60
2022-08-18T12:48:07.174Z,30.50
2022-08-18T12:50:49.957Z,30.10
2022-08-18T12:53:29.820Z,30.70
2022-08-18T12:58:55.827Z,30.60
2022-08-18T13:01:25.466Z,30.90
2022-08-18T13:04:11.087Z,31.40
2022-08-18T13:06:59.222Z,31.00
2022-08-18T13:09:35.000Z,31.00
2022-08-18T13:12:17.199Z,31.00
2022-08-18T13:14:45.822Z,31.20
2022-08-18T13:17:30.518Z,31.10
2022-08-18T13:20:01.645Z,30.80
2022-08-18T13:22:32.477Z,30.50
2022-08-18T13:25:01.464Z,29.50
2022-08-18T13:27:32.735Z,29.80
2022-08-18T13:30:03.470Z,29.60
2022-08-18T13:32:59.494Z,29.50
2022-08-18T13:35:38.064Z,29.10
2022-08-18T13:38:21.759Z,28.70
2022-08-18T13:40:54.893Z,28.60
2022-08-18T13:43:28.147Z,28.80
2022-08-18T13:45:56.538Z,29.00
2022-08-18T13:48:25.546Z,28.90
2022-08-18T13:50:55.769Z,28.50
2022-08-18T13:53:27.599Z,28.60
2022-08-18T13:55:58.578Z,28.70
2022-08-18T13:58:27.719Z,28.70
2022-08-18T14:01:22.476Z,28.80
2022-08-18T14:03:48.117Z,28.70
2022-08-18T14:06:22.644Z,28.70
2022-08-18T14:08:54.575Z,28.80
2022-08-18T14:11:27.995Z,28.70
2022-08-18T14:14:01.888Z,28.60
2022-08-18T14:16:30.937Z,28.80
2022-08-18T14:19:17.654Z,28.50
2022-08-18T14:22:06.240Z,28.40
2022-08-18T14:24:54.432Z,27.90
2022-08-18T14:27:29.018Z,27.80
2022-08-18T14:30:06.669Z,27.70
2022-08-18T14:32:36.384Z,27.60
2022-08-18T14:35:32.138Z,27.60
2022-08-18T14:38:01.556Z,27.40
2022-08-18T14:40:33.321Z,27.30
2022-08-18T14:43:02.661Z,27.60
2022-08-18T14:45:35.666Z,27.80
2022-08-18T14:48:06.640Z,27.80
2022-08-18T14:50:37.037Z,28.10
2022-08-18T14:53:05.403Z,28.30
2022-08-18T14:55:35.941Z,28.30
2022-08-18T14:58:07.174Z,28.30
2022-08-18T15:00:49.880Z,28.60
2022-08-18T15:03:31.284Z,28.50
2022-08-18T15:06:04.679Z,28.00
2022-08-18T15:08:34.454Z,27.50
2022-08-18T15:11:11.695Z,27.30
2022-08-18T15:13:41.616Z,27.10
2022-08-18T15:16:13.713Z,26.90
2022-08-18T15:18:41.758Z,26.90
2022-08-18T15:21:35.057Z,26.80
2022-08-18T15:24:24.361Z,26.80
2022-08-18T15:26:58.238Z,26.70
2022-08-18T15:29:34.271Z,26.70
2022-08-18T15:32:05.854Z,26.80
2022-08-18T15:34:47.278Z,26.50
2022-08-18T15:37:20.375Z,26.50
2022-08-18T15:40:00.922Z,26.50
2022-08-18T15:42:33.208Z,26.50
2022-08-18T15:45:12.108Z,26.50
2022-08-18T15:47:42.214Z,26.40
2022-08-18T15:50:25.634Z,26.50
2022-08-18T15:52:57.617Z,26.60
2022-08-18T15:55:27.533Z,26.60
2022-08-18T15:57:58.274Z,26.40
2022-08-18T16:00:28.145Z,26.30
2022-08-18T16:02:58.740Z,26.00
2022-08-18T16:05:31.809Z,25.90
2022-08-18T16:08:01.219Z,25.60
2022-08-18T16:10:32.241Z,25.70
2022-08-18T16:13:04.369Z,25.70
2022-08-18T16:15:36.925Z,25.70
2022-08-18T16:18:06.664Z,25.60
2022-08-18T16:20:35.126Z,25.60
2022-08-18T16:23:03.592Z,25.60
2022-08-18T16:25:31.565Z,25.60
2022-08-18T16:28:01.395Z,25.40
2022-08-18T16:30:30.197Z,25.20
2022-08-18T16:33:02.778Z,25.10
2022-08-18T16:35:31.532Z,25.00
2022-08-18T16:38:04.463Z,25.10
2022-08-18T16:40:32.433Z,25.20
2022-08-18T16:43:01.726Z,25.30
2022-08-18T16:45:31.470Z,25.20
2022-08-18T16:47:59.740Z,25.20
2022-08-18T16:50:28.149Z,25.20
2022-08-18T16:52:56.489Z,25.10
2022-08-18T16:55:24.497Z,25.20
2022-08-18T16:58:14.840Z,25.20
2022-08-18T17:01:03.221Z,25.10
2022-08-18T17:03:47.752Z,25.00
2022-08-18T17:06:18.491Z,24.90
2022-08-18T17:08:46.979Z,24.90
2022-08-18T17:11:17.736Z,24.90
2022-08-18T17:13:46.879Z,24.80
2022-08-18T17:16:18.058Z,24.80
2022-08-18T17:18:46.738Z,24.60
2022-08-18T17:21:17.711Z,24.70
2022-08-18T17:23:46.523Z,24.60
2022-08-18T17:26:23.102Z,24.50
2022-08-18T17:28:55.597Z,24.40
2022-08-18T17:31:25.301Z,24.30
2022-08-18T17:33:57.886Z,24.20
2022-08-18T17:36:33.554Z,23.90
2022-08-18T17:39:05.206Z,23.40
2022-08-18T17:41:54.445Z,23.00
2022-08-18T17:44:28.640Z,22.80
2022-08-18T17:47:03.206Z,22.50
2022-08-18T17:49:54.261Z,22.20
2022-08-18T17:52:41.821Z,21.90
2022-08-18T17:55:14.594Z,21.40
2022-08-18T17:57:58.680Z,21.30
2022-08-18T18:00:29.380Z,21.20
2022-08-18T18:02:58.679Z,21.10
2022-08-18T18:05:36.409Z,20.90
2022-08-18T18:08:04.864Z,20.80
2022-08-18T18:10:51.142Z,20.70
2022-08-18T18:13:32.337Z,20.70
2022-08-18T18:16:02.001Z,20.70
2022-08-18T18:18:38.580Z,20.60
2022-08-18T18:21:19.025Z,20.50
2022-08-18T18:23:48.824Z,20.40
2022-08-18T18:26:28.282Z,20.40
2022-08-18T18:29:33.565Z,20.30
2022-08-18T18:32:05.428Z,20.30
2022-08-18T18:34:39.581Z,20.20
2022-08-18T18:37:25.341Z,20.20
2022-08-18T18:39:58.365Z,20.10
2022-08-18T18:42:28.928Z,20.00
2022-08-18T18:44:59.037Z,19.90
2022-08-18T18:47:48.707Z,19.80
2022-08-18T18:50:25.803Z,19.80
2022-08-18T18:53:05.844Z,19.90
2022-08-18T18:55:38.369Z,19.90
2022-08-18T18:58:19.221Z,19.80
2022-08-18T19:00:54.226Z,19.80
2022-08-18T19:03:29.336Z,19.80
2022-08-18T19:06:12.160Z,19.80
2022-08-18T19:08:48.556Z,19.70
2022-08-18T19:11:23.981Z,19.60
2022-08-18T19:13:56.575Z,19.50
2022-08-18T19:16:34.649Z,19.50
2022-08-18T19:19:35.399Z,19.40
2022-08-18T19:22:06.488Z,19.40
2022-08-18T19:24:41.542Z,19.40
2022-08-18T19:27:23.393Z,19.40
2022-08-18T19:29:55.652Z,19.40
2022-08-18T19:32:33.292Z,19.40
2022-08-18T19:35:10.504Z,19.40
2022-08-18T19:38:00.780Z,19.40
2022-08-18T19:40:37.428Z,19.30
2022-08-18T19:43:12.374Z,19.30
2022-08-18T19:45:47.053Z,19.30
2022-08-18T19:51:12.382Z,19.40
2022-08-18T19:53:56.575Z,19.30
2022-08-18T19:56:42.382Z,19.10
2022-08-18T19:59:34.134Z,19.00
2022-08-18T20:02:20.769Z,18.90
2022-08-18T20:05:03.658Z,18.80
2022-08-18T20:08:03.910Z,18.70
2022-08-18T20:10:51.387Z,18.60
2022-08-18T20:13:33.600Z,18.60
2022-08-18T20:16:24.952Z,18.60
2022-08-18T20:18:58.264Z,18.60
2022-08-18T20:21:45.435Z,18.60
2022-08-18T20:24:43.779Z,18.70
2022-08-18T20:27:34.972Z,18.60
2022-08-18T20:30:23.966Z,18.60
2022-08-18T20:33:29.209Z,18.60
2022-08-18T20:36:10.412Z,18.60
2022-08-18T20:38:41.084Z,18.60
2022-08-18T20:41:42.833Z,18.60
2022-08-18T20:44:50.440Z,18.60
2022-08-18T20:47:42.000Z,18.60
2022-08-18T20:50:46.714Z,18.50
2022-08-18T20:53:26.281Z,18.50
2022-08-18T20:56:31.634Z,18.40
2022-08-18T20:59:04.104Z,18.40
2022-08-18T21:01:38.974Z,18.40
2022-08-18T21:04:08.856Z,18.40
2022-08-18T21:06:41.967Z,18.40
2022-08-18T21:09:10.397Z,18.40
2022-08-18T21:11:42.948Z,18.40
2022-08-18T21:14:12.810Z,18.50
2022-08-18T21:16:45.019Z,18.50
2022-08-18T21:19:20.624Z,18.50
2022-08-18T21:21:51.681Z,18.60
2022-08-18T21:24:23.268Z,18.60
2022-08-18T21:26:54.858Z,18.50
2022-08-18T21:29:22.951Z,18.60
2022-08-18T21:31:50.905Z,18.60
2022-08-18T21:34:35.834Z,18.60
2022-08-18T21:37:10.052Z,18.50
2022-08-18T21:39:49.566Z,18.60
2022-08-18T21:42:23.256Z,18.60
2022-08-18T21:44:54.970Z,18.50
2022-08-18T21:47:25.029Z,18.50
2022-08-18T21:50:09.308Z,18.50
2022-08-18T21:52:39.765Z,18.60
2022-08-18T21:55:13.939Z,18.60
2022-08-18T21:58:00.809Z,18.60
2022-08-18T22:00:31.067Z,18.60
2022-08-18T22:03:21.463Z,18.50
2022-08-18T22:06:00.051Z,18.50
2022-08-18T22:08:31.743Z,18.50
2022-08-18T22:11:38.285Z,18.60
2022-08-18T22:14:27.888Z,18.50
2022-08-18T22:17:40.505Z,18.50
2022-08-18T22:20:44.042Z,18.50
2022-08-18T22:23:43.300Z,18.50
2022-08-18T22:26:14.132Z,18.50
2022-08-18T22:28:52.705Z,18.50
2022-08-18T22:31:21.501Z,18.50
2022-08-18T22:33:50.082Z,18.40
2022-08-18T22:36:21.582Z,18.40
2022-08-18T22:38:52.314Z,18.40
2022-08-18T22:41:20.891Z,18.40
2022-08-18T22:43:49.733Z,18.30
2022-08-18T22:46:24.702Z,18.30
2022-08-18T22:48:53.672Z,18.30
2022-08-18T22:51:23.422Z,18.20
2022-08-18T22:53:53.397Z,18.20
2022-08-18T22:56:26.501Z,18.30
2022-08-18T22:59:15.542Z,18.30
2022-08-18T23:01:48.045Z,18.30
2022-08-18T23:04:17.211Z,18.20
2022-08-18T23:06:52.047Z,18.20
2022-08-18T23:09:24.693Z,18.20
2022-08-18T23:11:54.016Z,18.20
2022-08-18T23:14:22.396Z,18.20
2022-08-18T23:16:50.667Z,18.20
2022-08-18T23:19:20.777Z,18.20
2022-08-18T23:21:49.846Z,18.20
2022-08-18T23:24:19.702Z,18.20
2022-08-18T23:26:49.814Z,18.20
2022-08-18T23:29:17.986Z,18.20
2022-08-18T23:31:48.328Z,18.20
2022-08-18T23:34:17.881Z,18.20
2022-08-18T23:36:47.294Z,18.20
2022-08-18T23:39:15.289Z,18.20
2022-08-18T23:41:43.535Z,18.20
2022-08-18T23:44:14.900Z,18.20
2022-08-18T23:46:44.532Z,18.20
2022-08-18T23:49:14.614Z,18.30
2022-08-18T23:51:44.895Z,18.30
2022-08-18T23:54:15.341Z,18.40
2022-08-18T23:56:43.329Z,18.40
2022-08-18T23:59:13.595Z,18.40
